sensor_id;sensor_type;location;lat;lon;timestamp;pressure;altitude;pressure_sealevel;temperature;humidity
56681;BME280;42558;52.388;13.390;2024-01-07T00:01:14;101337.02;;;-2.32;100.00
56681;BME280;42558;52.388;13.390;2024-01-07T00:03:43;101335.61;;;-2.34;100.00
56681;BME280;42558;52.388;13.390;2024-01-07T00:06:13;101336.52;;;-2.36;99.78
56681;BME280;42558;52.388;13.390;2024-01-07T00:08:42;101333.55;;;-2.36;99.97
56681;BME280;42558;52.388;13.390;2024-01-07T00:11:12;101341.14;;;-2.36;99.60
56681;BME280;42558;52.388;13.390;2024-01-07T00:13:41;101336.68;;;-2.36;99.63
56681;BME280;42558;52.388;13.390;2024-01-07T00:16:10;101340.71;;;-2.38;99.63
56681;BME280;42558;52.388;13.390;2024-01-07T00:18:40;101345.00;;;-2.40;99.47
56681;BME280;42558;52.388;13.390;2024-01-07T00:21:09;101350.23;;;-2.39;99.59
56681;BME280;42558;52.388;13.390;2024-01-07T00:23:39;101351.83;;;-2.39;99.81
56681;BME280;42558;52.388;13.390;2024-01-07T00:26:09;101350.63;;;-2.41;99.99
56681;BME280;42558;52.388;13.390;2024-01-07T00:28:39;101355.10;;;-2.41;99.84
56681;BME280;42558;52.388;13.390;2024-01-07T00:31:08;101353.43;;;-2.42;99.42
56681;BME280;42558;52.388;13.390;2024-01-07T00:33:38;101355.09;;;-2.41;99.99
56681;BME280;42558;52.388;13.390;2024-01-07T00:36:08;101358.83;;;-2.39;100.00
56681;BME280;42558;52.388;13.390;2024-01-07T00:38:37;101360.46;;;-2.40;100.00
56681;BME280;42558;52.388;13.390;2024-01-07T00:41:07;101361.89;;;-2.42;100.00
56681;BME280;42558;52.388;13.390;2024-01-07T00:43:36;101363.73;;;-2.45;100.00
56681;BME280;42558;52.388;13.390;2024-01-07T00:46:05;101369.83;;;-2.44;100.00
56681;BME280;42558;52.388;13.390;2024-01-07T00:48:35;101375.36;;;-2.39;100.00
56681;BME280;42558;52.388;13.390;2024-01-07T00:51:04;101380.98;;;-2.42;100.00
56681;BME280;42558;52.388;13.390;2024-01-07T00:53:34;101383.79;;;-2.44;100.00
56681;BME280;42558;52.388;13.390;2024-01-07T00:56:04;101386.89;;;-2.41;100.00
56681;BME280;42558;52.388;13.390;2024-01-07T00:58:33;101385.69;;;-2.41;100.00
56681;BME280;42558;52.388;13.390;2024-01-07T01:01:05;101393.46;;;-2.43;100.00
56681;BME280;42558;52.388;13.390;2024-01-07T01:03:35;101393.48;;;-2.48;100.00
56681;BME280;42558;52.388;13.390;2024-01-07T01:06:05;101394.77;;;-2.47;100.00
56681;BME280;42558;52.388;13.390;2024-01-07T01:08:35;101396.34;;;-2.47;100.00
56681;BME280;42558;52.388;13.390;2024-01-07T01:11:04;101399.36;;;-2.53;100.00
56681;BME280;42558;52.388;13.390;2024-01-07T01:13:33;101400.45;;;-2.52;100.00
56681;BME280;42558;52.388;13.390;2024-01-07T01:16:03;101409.83;;;-2.55;100.00
56681;BME280;42558;52.388;13.390;2024-01-07T01:18:33;101411.93;;;-2.59;100.00
56681;BME280;42558;52.388;13.390;2024-01-07T01:21:03;101415.99;;;-2.60;100.00
56681;BME280;42558;52.388;13.390;2024-01-07T01:23:33;101415.04;;;-2.61;99.98
56681;BME280;42558;52.388;13.390;2024-01-07T01:26:02;101422.60;;;-2.64;99.86
56681;BME280;42558;52.388;13.390;2024-01-07T01:28:31;101425.97;;;-2.64;99.68
56681;BME280;42558;52.388;13.390;2024-01-07T01:30:59;101427.34;;;-2.65;99.79
56681;BME280;42558;52.388;13.390;2024-01-07T01:33:27;101426.08;;;-2.70;99.45
56681;BME280;42558;52.388;13.390;2024-01-07T01:35:56;101431.10;;;-2.76;99.30
56681;BME280;42558;52.388;13.390;2024-01-07T01:38:24;101433.95;;;-2.77;98.59
56681;BME280;42558;52.388;13.390;2024-01-07T01:40:53;101438.23;;;-2.73;99.37
56681;BME280;42558;52.388;13.390;2024-01-07T01:43:29;101437.73;;;-2.72;99.33
56681;BME280;42558;52.388;13.390;2024-01-07T01:45:56;101436.21;;;-2.79;98.53
56681;BME280;42558;52.388;13.390;2024-01-07T01:48:25;101440.81;;;-2.84;97.55
56681;BME280;42558;52.388;13.390;2024-01-07T01:50:54;101442.41;;;-2.83;97.16
56681;BME280;42558;52.388;13.390;2024-01-07T01:53:26;101442.86;;;-2.86;96.98
56681;BME280;42558;52.388;13.390;2024-01-07T01:55:57;101445.45;;;-2.86;96.53
56681;BME280;42558;52.388;13.390;2024-01-07T01:58:29;101447.94;;;-2.87;96.18
56681;BME280;42558;52.388;13.390;2024-01-07T02:00:59;101449.80;;;-2.88;95.84
56681;BME280;42558;52.388;13.390;2024-01-07T02:03:29;101451.47;;;-2.86;96.46
56681;BME280;42558;52.388;13.390;2024-01-07T02:05:59;101451.52;;;-2.85;96.60
56681;BME280;42558;52.388;13.390;2024-01-07T02:08:29;101450.70;;;-2.92;95.81
56681;BME280;42558;52.388;13.390;2024-01-07T02:11:20;101457.05;;;-2.92;95.73
56681;BME280;42558;52.388;13.390;2024-01-07T02:13:50;101455.39;;;-2.97;95.20
56681;BME280;42558;52.388;13.390;2024-01-07T02:16:20;101454.95;;;-3.01;94.50
56681;BME280;42558;52.388;13.390;2024-01-07T02:18:50;101456.42;;;-3.05;94.40
56681;BME280;42558;52.388;13.390;2024-01-07T02:21:19;101461.86;;;-3.05;94.43
56681;BME280;42558;52.388;13.390;2024-01-07T02:23:48;101464.79;;;-3.05;94.74
56681;BME280;42558;52.388;13.390;2024-01-07T02:26:18;101458.91;;;-3.06;94.36
56681;BME280;42558;52.388;13.390;2024-01-07T02:28:47;101455.35;;;-3.07;95.22
56681;BME280;42558;52.388;13.390;2024-01-07T02:31:16;101462.03;;;-3.07;94.91
56681;BME280;42558;52.388;13.390;2024-01-07T02:33:46;101465.31;;;-3.13;94.32
56681;BME280;42558;52.388;13.390;2024-01-07T02:36:16;101461.25;;;-3.17;93.67
56681;BME280;42558;52.388;13.390;2024-01-07T02:38:45;101465.73;;;-3.17;94.27
56681;BME280;42558;52.388;13.390;2024-01-07T02:41:14;101470.45;;;-3.16;94.39
56681;BME280;42558;52.388;13.390;2024-01-07T02:43:44;101468.45;;;-3.22;94.50
56681;BME280;42558;52.388;13.390;2024-01-07T02:46:14;101476.72;;;-3.25;94.21
56681;BME280;42558;52.388;13.390;2024-01-07T02:48:43;101470.02;;;-3.28;94.13
56681;BME280;42558;52.388;13.390;2024-01-07T02:51:13;101476.58;;;-3.30;93.93
56681;BME280;42558;52.388;13.390;2024-01-07T02:53:42;101478.58;;;-3.34;94.16
56681;BME280;42558;52.388;13.390;2024-01-07T02:56:11;101481.45;;;-3.35;94.87
56681;BME280;42558;52.388;13.390;2024-01-07T02:58:41;101493.52;;;-3.41;94.93
56681;BME280;42558;52.388;13.390;2024-01-07T03:01:10;101492.33;;;-3.49;94.75
56681;BME280;42558;52.388;13.390;2024-01-07T03:03:40;101499.15;;;-3.48;95.15
56681;BME280;42558;52.388;13.390;2024-01-07T03:06:10;101497.96;;;-3.54;94.70
56681;BME280;42558;52.388;13.390;2024-01-07T03:08:39;101498.45;;;-3.57;94.93
56681;BME280;42558;52.388;13.390;2024-01-07T03:11:09;101500.11;;;-3.59;94.88
56681;BME280;42558;52.388;13.390;2024-01-07T03:13:40;101501.02;;;-3.65;94.85
56681;BME280;42558;52.388;13.390;2024-01-07T03:16:20;101503.95;;;-3.67;95.43
56681;BME280;42558;52.388;13.390;2024-01-07T03:18:47;101504.59;;;-3.74;94.99
56681;BME280;42558;52.388;13.390;2024-01-07T03:21:21;101508.70;;;-3.76;94.92
56681;BME280;42558;52.388;13.390;2024-01-07T03:23:51;101511.40;;;-3.79;94.62
56681;BME280;42558;52.388;13.390;2024-01-07T03:26:20;101511.08;;;-3.83;94.65
56681;BME280;42558;52.388;13.390;2024-01-07T03:28:50;101512.92;;;-3.85;95.32
56681;BME280;42558;52.388;13.390;2024-01-07T03:31:19;101515.52;;;-3.87;95.48
56681;BME280;42558;52.388;13.390;2024-01-07T03:33:49;101510.91;;;-3.89;95.65
56681;BME280;42558;52.388;13.390;2024-01-07T03:36:19;101514.32;;;-3.93;95.82
56681;BME280;42558;52.388;13.390;2024-01-07T03:38:48;101523.17;;;-3.96;95.96
56681;BME280;42558;52.388;13.390;2024-01-07T03:41:20;101519.15;;;-3.99;96.02
56681;BME280;42558;52.388;13.390;2024-01-07T03:43:50;101521.95;;;-4.03;96.17
56681;BME280;42558;52.388;13.390;2024-01-07T03:46:19;101527.61;;;-4.02;96.41
56681;BME280;42558;52.388;13.390;2024-01-07T03:48:50;101529.52;;;-4.04;96.20
56681;BME280;42558;52.388;13.390;2024-01-07T03:51:19;101535.00;;;-4.07;96.68
56681;BME280;42558;52.388;13.390;2024-01-07T03:53:48;101538.39;;;-4.12;96.61
56681;BME280;42558;52.388;13.390;2024-01-07T03:56:18;101544.54;;;-4.12;96.93
56681;BME280;42558;52.388;13.390;2024-01-07T03:58:47;101542.36;;;-4.15;97.09
56681;BME280;42558;52.388;13.390;2024-01-07T04:01:17;101548.96;;;-4.19;97.08
56681;BME280;42558;52.388;13.390;2024-01-07T04:03:47;101550.14;;;-4.21;97.02
56681;BME280;42558;52.388;13.390;2024-01-07T04:06:16;101558.19;;;-4.21;96.85
56681;BME280;42558;52.388;13.390;2024-01-07T04:08:46;101569.91;;;-4.22;97.43
56681;BME280;42558;52.388;13.390;2024-01-07T04:11:15;101568.27;;;-4.24;97.30
56681;BME280;42558;52.388;13.390;2024-01-07T04:13:44;101579.65;;;-4.25;96.98
56681;BME280;42558;52.388;13.390;2024-01-07T04:16:18;101585.48;;;-4.27;97.07
56681;BME280;42558;52.388;13.390;2024-01-07T04:18:48;101588.83;;;-4.30;96.26
56681;BME280;42558;52.388;13.390;2024-01-07T04:21:22;101590.89;;;-4.30;96.16
56681;BME280;42558;52.388;13.390;2024-01-07T04:23:52;101593.63;;;-4.32;96.29
56681;BME280;42558;52.388;13.390;2024-01-07T04:26:21;101600.06;;;-4.33;96.58
56681;BME280;42558;52.388;13.390;2024-01-07T04:28:50;101601.17;;;-4.36;96.32
56681;BME280;42558;52.388;13.390;2024-01-07T04:31:20;101602.54;;;-4.36;96.22
56681;BME280;42558;52.388;13.390;2024-01-07T04:33:49;101601.59;;;-4.37;95.49
56681;BME280;42558;52.388;13.390;2024-01-07T04:36:19;101603.08;;;-4.38;96.02
56681;BME280;42558;52.388;13.390;2024-01-07T04:38:48;101606.63;;;-4.38;96.05
56681;BME280;42558;52.388;13.390;2024-01-07T04:41:16;101604.48;;;-4.40;95.55
56681;BME280;42558;52.388;13.390;2024-01-07T04:43:45;101606.73;;;-4.41;95.35
56681;BME280;42558;52.388;13.390;2024-01-07T04:46:13;101610.73;;;-4.42;95.65
56681;BME280;42558;52.388;13.390;2024-01-07T04:48:42;101610.70;;;-4.43;95.49
56681;BME280;42558;52.388;13.390;2024-01-07T04:51:10;101611.12;;;-4.44;94.78
56681;BME280;42558;52.388;13.390;2024-01-07T04:53:38;101611.14;;;-4.44;94.90
56681;BME280;42558;52.388;13.390;2024-01-07T04:56:07;101613.74;;;-4.43;94.84
56681;BME280;42558;52.388;13.390;2024-01-07T04:58:35;101611.84;;;-4.46;94.95
56681;BME280;42558;52.388;13.390;2024-01-07T05:01:04;101610.27;;;-4.46;95.00
56681;BME280;42558;52.388;13.390;2024-01-07T05:03:32;101613.34;;;-4.44;94.60
56681;BME280;42558;52.388;13.390;2024-01-07T05:06:01;101615.25;;;-4.46;94.53
56681;BME280;42558;52.388;13.390;2024-01-07T05:08:29;101620.67;;;-4.45;93.91
56681;BME280;42558;52.388;13.390;2024-01-07T05:10:57;101626.72;;;-4.46;94.67
56681;BME280;42558;52.388;13.390;2024-01-07T05:13:26;101626.58;;;-4.48;94.79
56681;BME280;42558;52.388;13.390;2024-01-07T05:15:54;101628.80;;;-4.49;95.35
56681;BME280;42558;52.388;13.390;2024-01-07T05:18:23;101630.79;;;-4.51;95.40
56681;BME280;42558;52.388;13.390;2024-01-07T05:20:51;101630.44;;;-4.53;95.69
56681;BME280;42558;52.388;13.390;2024-01-07T05:23:20;101634.17;;;-4.55;96.08
56681;BME280;42558;52.388;13.390;2024-01-07T05:25:48;101641.80;;;-4.54;96.08
56681;BME280;42558;52.388;13.390;2024-01-07T05:28:16;101642.79;;;-4.53;95.41
56681;BME280;42558;52.388;13.390;2024-01-07T05:30:49;101644.59;;;-4.54;96.08
56681;BME280;42558;52.388;13.390;2024-01-07T05:33:16;101651.25;;;-4.56;95.97
56681;BME280;42558;52.388;13.390;2024-01-07T05:35:44;101651.50;;;-4.61;96.29
56681;BME280;42558;52.388;13.390;2024-01-07T05:38:13;101660.38;;;-4.63;97.20
56681;BME280;42558;52.388;13.390;2024-01-07T05:40:41;101662.60;;;-4.59;96.47
56681;BME280;42558;52.388;13.390;2024-01-07T05:43:10;101665.39;;;-4.59;96.38
56681;BME280;42558;52.388;13.390;2024-01-07T05:45:38;101671.23;;;-4.60;97.01
56681;BME280;42558;52.388;13.390;2024-01-07T05:48:07;101673.53;;;-4.64;97.02
56681;BME280;42558;52.388;13.390;2024-01-07T05:50:36;101677.73;;;-4.63;96.90
56681;BME280;42558;52.388;13.390;2024-01-07T05:53:05;101684.79;;;-4.62;96.58
56681;BME280;42558;52.388;13.390;2024-01-07T05:55:35;101686.77;;;-4.63;96.66
56681;BME280;42558;52.388;13.390;2024-01-07T05:58:04;101685.23;;;-4.68;97.24
56681;BME280;42558;52.388;13.390;2024-01-07T06:00:33;101690.17;;;-4.70;97.51
56681;BME280;42558;52.388;13.390;2024-01-07T06:03:03;101687.06;;;-4.72;97.54
56681;BME280;42558;52.388;13.390;2024-01-07T06:05:32;101684.84;;;-4.74;97.89
56681;BME280;42558;52.388;13.390;2024-01-07T06:08:03;101688.98;;;-4.77;98.05
56681;BME280;42558;52.388;13.390;2024-01-07T06:10:32;101694.06;;;-4.76;98.05
56681;BME280;42558;52.388;13.390;2024-01-07T06:13:02;101694.25;;;-4.80;98.06
56681;BME280;42558;52.388;13.390;2024-01-07T06:15:32;101695.80;;;-4.83;98.79
56681;BME280;42558;52.388;13.390;2024-01-07T06:18:02;101701.24;;;-4.86;98.98
56681;BME280;42558;52.388;13.390;2024-01-07T06:20:31;101702.80;;;-4.82;98.62
56681;BME280;42558;52.388;13.390;2024-01-07T06:23:01;101702.92;;;-4.81;99.02
56681;BME280;42558;52.388;13.390;2024-01-07T06:25:30;101705.63;;;-4.79;99.29
56681;BME280;42558;52.388;13.390;2024-01-07T06:27:59;101714.45;;;-4.75;99.13
56681;BME280;42558;52.388;13.390;2024-01-07T06:30:29;101720.12;;;-4.73;99.03
56681;BME280;42558;52.388;13.390;2024-01-07T06:32:58;101712.80;;;-4.72;99.00
56681;BME280;42558;52.388;13.390;2024-01-07T06:35:28;101720.30;;;-4.72;99.12
56681;BME280;42558;52.388;13.390;2024-01-07T06:37:57;101721.57;;;-4.70;99.00
56681;BME280;42558;52.388;13.390;2024-01-07T06:40:27;101719.33;;;-4.66;98.35
56681;BME280;42558;52.388;13.390;2024-01-07T06:42:56;101721.80;;;-4.65;97.96
56681;BME280;42558;52.388;13.390;2024-01-07T06:45:25;101724.96;;;-4.69;98.57
56681;BME280;42558;52.388;13.390;2024-01-07T06:47:55;101731.53;;;-4.68;98.82
56681;BME280;42558;52.388;13.390;2024-01-07T06:50:24;101733.21;;;-4.68;98.75
56681;BME280;42558;52.388;13.390;2024-01-07T06:52:53;101733.13;;;-4.68;98.71
56681;BME280;42558;52.388;13.390;2024-01-07T06:55:21;101734.61;;;-4.68;98.90
56681;BME280;42558;52.388;13.390;2024-01-07T06:57:50;101740.08;;;-4.66;97.91
56681;BME280;42558;52.388;13.390;2024-01-07T07:00:20;101739.66;;;-4.67;98.11
56681;BME280;42558;52.388;13.390;2024-01-07T07:02:49;101742.59;;;-4.67;98.37
56681;BME280;42558;52.388;13.390;2024-01-07T07:05:19;101746.26;;;-4.66;98.26
56681;BME280;42558;52.388;13.390;2024-01-07T07:07:48;101745.77;;;-4.66;98.66
56681;BME280;42558;52.388;13.390;2024-01-07T07:10:21;101742.37;;;-4.63;97.93
56681;BME280;42558;52.388;13.390;2024-01-07T07:12:51;101755.52;;;-4.60;98.24
56681;BME280;42558;52.388;13.390;2024-01-07T07:15:20;101757.42;;;-4.60;98.48
56681;BME280;42558;52.388;13.390;2024-01-07T07:17:50;101754.71;;;-4.56;98.48
56681;BME280;42558;52.388;13.390;2024-01-07T07:20:20;101755.28;;;-4.53;97.80
56681;BME280;42558;52.388;13.390;2024-01-07T07:22:49;101758.53;;;-4.53;97.19
56681;BME280;42558;52.388;13.390;2024-01-07T07:25:19;101763.61;;;-4.48;97.19
56681;BME280;42558;52.388;13.390;2024-01-07T07:27:49;101767.67;;;-4.47;97.32
56681;BME280;42558;52.388;13.390;2024-01-07T07:30:18;101765.64;;;-4.43;97.26
56681;BME280;42558;52.388;13.390;2024-01-07T07:32:47;101771.64;;;-4.39;97.12
56681;BME280;42558;52.388;13.390;2024-01-07T07:35:17;101774.42;;;-4.37;97.22
56681;BME280;42558;52.388;13.390;2024-01-07T07:37:47;101773.68;;;-4.34;97.81
56681;BME280;42558;52.388;13.390;2024-01-07T07:40:16;101777.53;;;-4.29;97.52
56681;BME280;42558;52.388;13.390;2024-01-07T07:42:46;101780.17;;;-4.27;97.15
56681;BME280;42558;52.388;13.390;2024-01-07T07:45:16;101786.44;;;-4.24;97.11
56681;BME280;42558;52.388;13.390;2024-01-07T07:47:45;101785.98;;;-4.23;96.33
56681;BME280;42558;52.388;13.390;2024-01-07T07:50:15;101786.25;;;-4.20;95.82
56681;BME280;42558;52.388;13.390;2024-01-07T07:52:45;101785.70;;;-4.16;95.52
56681;BME280;42558;52.388;13.390;2024-01-07T07:55:14;101793.37;;;-4.13;95.36
56681;BME280;42558;52.388;13.390;2024-01-07T07:57:43;101796.80;;;-4.09;95.38
56681;BME280;42558;52.388;13.390;2024-01-07T08:00:14;101804.48;;;-4.06;95.83
56681;BME280;42558;52.388;13.390;2024-01-07T08:02:43;101807.70;;;-4.00;96.22
56681;BME280;42558;52.388;13.390;2024-01-07T08:05:13;101806.39;;;-4.01;95.70
56681;BME280;42558;52.388;13.390;2024-01-07T08:07:43;101812.19;;;-3.96;95.20
56681;BME280;42558;52.388;13.390;2024-01-07T08:10:12;101810.77;;;-3.91;95.25
56681;BME280;42558;52.388;13.390;2024-01-07T08:12:42;101808.68;;;-3.89;94.72
56681;BME280;42558;52.388;13.390;2024-01-07T08:15:11;101812.73;;;-3.87;94.08
56681;BME280;42558;52.388;13.390;2024-01-07T08:17:40;101811.13;;;-3.83;93.88
56681;BME280;42558;52.388;13.390;2024-01-07T08:20:12;101813.63;;;-3.82;93.74
56681;BME280;42558;52.388;13.390;2024-01-07T08:22:42;101817.46;;;-3.77;93.32
56681;BME280;42558;52.388;13.390;2024-01-07T08:25:12;101821.27;;;-3.73;93.85
56681;BME280;42558;52.388;13.390;2024-01-07T08:27:42;101820.19;;;-3.70;93.78
56681;BME280;42558;52.388;13.390;2024-01-07T08:30:13;101821.72;;;-3.68;93.82
56681;BME280;42558;52.388;13.390;2024-01-07T08:32:42;101820.57;;;-3.68;93.31
56681;BME280;42558;52.388;13.390;2024-01-07T08:35:12;101824.41;;;-3.63;93.64
56681;BME280;42558;52.388;13.390;2024-01-07T08:37:44;101829.56;;;-3.59;93.29
56681;BME280;42558;52.388;13.390;2024-01-07T08:40:14;101835.04;;;-3.60;93.40
56681;BME280;42558;52.388;13.390;2024-01-07T08:42:42;101840.06;;;-3.55;94.18
56681;BME280;42558;52.388;13.390;2024-01-07T08:45:11;101847.73;;;-3.54;93.85
56681;BME280;42558;52.388;13.390;2024-01-07T08:47:39;101846.70;;;-3.53;92.88
56681;BME280;42558;52.388;13.390;2024-01-07T08:50:11;101847.06;;;-3.49;93.34
56681;BME280;42558;52.388;13.390;2024-01-07T08:52:39;101846.80;;;-3.44;93.85
56681;BME280;42558;52.388;13.390;2024-01-07T08:55:08;101843.43;;;-3.38;94.02
56681;BME280;42558;52.388;13.390;2024-01-07T08:57:37;101838.98;;;-3.36;94.32
56681;BME280;42558;52.388;13.390;2024-01-07T09:00:07;101827.20;;;-3.40;93.31
56681;BME280;42558;52.388;13.390;2024-01-07T09:02:39;101824.99;;;-3.40;92.50
56681;BME280;42558;52.388;13.390;2024-01-07T09:05:12;101831.59;;;-3.30;93.17
56681;BME280;42558;52.388;13.390;2024-01-07T09:07:42;101836.59;;;-3.23;93.69
56681;BME280;42558;52.388;13.390;2024-01-07T09:10:12;101833.95;;;-3.18;93.48
56681;BME280;42558;52.388;13.390;2024-01-07T09:12:42;101831.96;;;-3.15;93.43
56681;BME280;42558;52.388;13.390;2024-01-07T09:15:12;101830.31;;;-3.15;92.91
56681;BME280;42558;52.388;13.390;2024-01-07T09:17:41;101826.48;;;-3.13;92.56
56681;BME280;42558;52.388;13.390;2024-01-07T09:20:12;101826.34;;;-3.07;92.80
56681;BME280;42558;52.388;13.390;2024-01-07T09:22:41;101833.61;;;-3.00;93.02
56681;BME280;42558;52.388;13.390;2024-01-07T09:25:12;101841.51;;;-3.02;92.53
56681;BME280;42558;52.388;13.390;2024-01-07T09:27:42;101845.12;;;-2.98;92.77
56681;BME280;42558;52.388;13.390;2024-01-07T09:30:13;101843.17;;;-3.01;92.99
56681;BME280;42558;52.388;13.390;2024-01-07T09:32:44;101835.94;;;-3.03;93.09
56681;BME280;42558;52.388;13.390;2024-01-07T09:35:14;101838.02;;;-2.96;93.36
56681;BME280;42558;52.388;13.390;2024-01-07T09:37:43;101838.42;;;-2.88;93.90
56681;BME280;42558;52.388;13.390;2024-01-07T09:40:18;101841.71;;;-2.82;94.19
56681;BME280;42558;52.388;13.390;2024-01-07T09:42:48;101835.77;;;-2.85;93.49
56681;BME280;42558;52.388;13.390;2024-01-07T09:45:21;101833.16;;;-2.85;93.24
56681;BME280;42558;52.388;13.390;2024-01-07T09:47:50;101826.78;;;-2.81;93.16
56681;BME280;42558;52.388;13.390;2024-01-07T09:50:19;101828.70;;;-2.75;93.06
56681;BME280;42558;52.388;13.390;2024-01-07T09:52:48;101824.20;;;-2.73;92.97
56681;BME280;42558;52.388;13.390;2024-01-07T09:55:39;101822.86;;;-2.74;93.07
56681;BME280;42558;52.388;13.390;2024-01-07T09:58:09;101828.16;;;-2.73;92.79
56681;BME280;42558;52.388;13.390;2024-01-07T10:00:39;101831.89;;;-2.76;93.08
56681;BME280;42558;52.388;13.390;2024-01-07T10:03:09;101832.60;;;-2.71;93.59
56681;BME280;42558;52.388;13.390;2024-01-07T10:05:39;101832.96;;;-2.65;93.59
56681;BME280;42558;52.388;13.390;2024-01-07T10:08:09;101829.78;;;-2.66;93.06
56681;BME280;42558;52.388;13.390;2024-01-07T10:10:38;101830.71;;;-2.65;93.60
56681;BME280;42558;52.388;13.390;2024-01-07T10:13:09;101829.38;;;-2.58;94.05
56681;BME280;42558;52.388;13.390;2024-01-07T10:15:39;101830.89;;;-2.52;94.19
56681;BME280;42558;52.388;13.390;2024-01-07T10:18:09;101834.48;;;-2.51;94.07
56681;BME280;42558;52.388;13.390;2024-01-07T10:20:40;101832.25;;;-2.49;93.92
56681;BME280;42558;52.388;13.390;2024-01-07T10:23:12;101829.88;;;-2.48;94.04
56681;BME280;42558;52.388;13.390;2024-01-07T10:25:43;101834.52;;;-2.42;94.46
56681;BME280;42558;52.388;13.390;2024-01-07T10:28:12;101836.95;;;-2.41;94.50
56681;BME280;42558;52.388;13.390;2024-01-07T10:30:49;101836.98;;;-2.48;95.37
56681;BME280;42558;52.388;13.390;2024-01-07T10:33:19;101836.84;;;-2.39;95.59
56681;BME280;42558;52.388;13.390;2024-01-07T10:36:01;101831.42;;;-2.44;95.52
56681;BME280;42558;52.388;13.390;2024-01-07T10:38:33;101829.98;;;-2.47;95.65
56681;BME280;42558;52.388;13.390;2024-01-07T10:41:07;101836.55;;;-2.49;96.29
56681;BME280;42558;52.388;13.390;2024-01-07T10:43:39;101837.02;;;-2.43;96.77
56681;BME280;42558;52.388;13.390;2024-01-07T10:46:10;101841.98;;;-2.48;96.81
56681;BME280;42558;52.388;13.390;2024-01-07T10:49:00;101833.77;;;-2.49;96.87
56681;BME280;42558;52.388;13.390;2024-01-07T10:51:34;101841.94;;;-2.53;96.68
56681;BME280;42558;52.388;13.390;2024-01-07T10:54:04;101841.45;;;-2.52;96.98
56681;BME280;42558;52.388;13.390;2024-01-07T10:56:48;101828.62;;;-2.51;97.18
56681;BME280;42558;52.388;13.390;2024-01-07T10:59:19;101825.46;;;-2.48;97.24
56681;BME280;42558;52.388;13.390;2024-01-07T11:01:50;101826.17;;;-2.47;97.48
56681;BME280;42558;52.388;13.390;2024-01-07T11:07:31;101828.27;;;-2.38;98.17
56681;BME280;42558;52.388;13.390;2024-01-07T11:10:19;101819.54;;;-2.35;98.21
56681;BME280;42558;52.388;13.390;2024-01-07T11:12:56;101823.08;;;-2.40;98.19
56681;BME280;42558;52.388;13.390;2024-01-07T11:18:20;101819.87;;;-2.38;98.47
56681;BME280;42558;52.388;13.390;2024-01-07T11:20:50;101817.55;;;-2.30;98.78
56681;BME280;42558;52.388;13.390;2024-01-07T11:23:46;101819.98;;;-2.22;99.07
56681;BME280;42558;52.388;13.390;2024-01-07T11:26:15;101825.15;;;-2.22;98.68
56681;BME280;42558;52.388;13.390;2024-01-07T11:28:53;101825.14;;;-2.28;98.90
56681;BME280;42558;52.388;13.390;2024-01-07T11:31:45;101817.95;;;-2.24;99.03
56681;BME280;42558;52.388;13.390;2024-01-07T11:34:41;101814.20;;;-2.17;99.37
56681;BME280;42558;52.388;13.390;2024-01-07T11:37:16;101819.41;;;-2.16;99.21
56681;BME280;42558;52.388;13.390;2024-01-07T11:39:48;101814.23;;;-2.16;99.22
56681;BME280;42558;52.388;13.390;2024-01-07T11:42:18;101811.95;;;-2.13;99.10
56681;BME280;42558;52.388;13.390;2024-01-07T11:44:55;101812.34;;;-2.08;99.31
56681;BME280;42558;52.388;13.390;2024-01-07T11:47:25;101812.85;;;-2.08;99.58
56681;BME280;42558;52.388;13.390;2024-01-07T11:49:58;101815.19;;;-2.09;99.88
56681;BME280;42558;52.388;13.390;2024-01-07T11:52:28;101809.65;;;-2.13;99.94
56681;BME280;42558;52.388;13.390;2024-01-07T11:54:59;101804.83;;;-2.15;99.98
56681;BME280;42558;52.388;13.390;2024-01-07T11:57:30;101809.73;;;-2.04;100.00
56681;BME280;42558;52.388;13.390;2024-01-07T12:00:01;101808.33;;;-2.00;100.00
56681;BME280;42558;52.388;13.390;2024-01-07T12:02:32;101813.31;;;-2.00;100.00
56681;BME280;42558;52.388;13.390;2024-01-07T12:05:02;101813.73;;;-1.99;100.00
56681;BME280;42558;52.388;13.390;2024-01-07T12:07:32;101814.17;;;-1.94;100.00
56681;BME280;42558;52.388;13.390;2024-01-07T12:10:01;101811.25;;;-1.89;100.00
56681;BME280;42558;52.388;13.390;2024-01-07T12:12:31;101807.04;;;-1.88;100.00
56681;BME280;42558;52.388;13.390;2024-01-07T12:15:00;101803.80;;;-1.92;100.00
56681;BME280;42558;52.388;13.390;2024-01-07T12:17:33;101808.33;;;-1.85;100.00
56681;BME280;42558;52.388;13.390;2024-01-07T12:20:04;101804.67;;;-1.81;100.00
56681;BME280;42558;52.388;13.390;2024-01-07T12:22:38;101803.58;;;-1.84;100.00
56681;BME280;42558;52.388;13.390;2024-01-07T12:25:08;101803.31;;;-1.83;100.00
56681;BME280;42558;52.388;13.390;2024-01-07T12:27:41;101800.84;;;-1.88;100.00
56681;BME280;42558;52.388;13.390;2024-01-07T12:30:11;101801.35;;;-1.90;100.00
56681;BME280;42558;52.388;13.390;2024-01-07T12:32:40;101807.61;;;-1.92;100.00
56681;BME280;42558;52.388;13.390;2024-01-07T12:35:10;101807.77;;;-1.89;100.00
56681;BME280;42558;52.388;13.390;2024-01-07T12:37:40;101812.23;;;-1.94;100.00
56681;BME280;42558;52.388;13.390;2024-01-07T12:40:11;101815.25;;;-1.98;100.00
56681;BME280;42558;52.388;13.390;2024-01-07T12:42:41;101816.33;;;-1.95;100.00
56681;BME280;42558;52.388;13.390;2024-01-07T12:45:14;101818.67;;;-1.94;100.00
56681;BME280;42558;52.388;13.390;2024-01-07T12:47:45;101822.73;;;-1.93;100.00
56681;BME280;42558;52.388;13.390;2024-01-07T12:50:17;101821.80;;;-1.91;100.00
56681;BME280;42558;52.388;13.390;2024-01-07T12:52:46;101823.79;;;-1.89;100.00
56681;BME280;42558;52.388;13.390;2024-01-07T12:55:16;101820.96;;;-1.84;100.00
56681;BME280;42558;52.388;13.390;2024-01-07T12:57:45;101828.13;;;-1.81;100.00
56681;BME280;42558;52.388;13.390;2024-01-07T13:00:16;101823.38;;;-1.80;100.00